createdAt,value
2023-09-30T00:01:12.586Z,101419.13
2023-09-30T00:03:39.294Z,101414.13
2023-09-30T00:06:06.027Z,101421.41
2023-09-30T00:08:32.475Z,101423.69
2023-09-30T00:10:58.923Z,101430.69
2023-09-30T00:13:25.345Z,101449.03
2023-09-30T00:15:51.781Z,101445.44
2023-09-30T00:18:18.482Z,101435.22
2023-09-30T00:20:45.029Z,101441.09
2023-09-30T00:23:11.504Z,101440.88
2023-09-30T00:25:37.943Z,101447.78
2023-09-30T00:28:04.691Z,101453.44
2023-09-30T00:30:31.342Z,101454.69
2023-09-30T00:32:57.920Z,101457.06
2023-09-30T00:35:24.877Z,101460.34
2023-09-30T00:37:51.399Z,101463.06
2023-09-30T00:40:17.994Z,101466.69
2023-09-30T00:42:44.459Z,101473.47
2023-09-30T00:45:11.334Z,101462.16
2023-09-30T00:47:38.718Z,101467.59
2023-09-30T00:50:08.658Z,101463.41
2023-09-30T00:52:36.742Z,101457.41
2023-09-30T00:55:07.009Z,101451.31
2023-09-30T00:57:35.152Z,101462.84
2023-09-30T01:00:02.346Z,101453.91
2023-09-30T01:02:28.974Z,101443.06
2023-09-30T01:04:56.724Z,101438.41
2023-09-30T01:07:23.237Z,101441.78
2023-09-30T01:09:51.582Z,101440.00
2023-09-30T01:12:18.129Z,101446.00
2023-09-30T01:14:44.776Z,101448.34
2023-09-30T01:17:14.518Z,101444.84
2023-09-30T01:19:43.619Z,101440.09
2023-09-30T01:22:11.047Z,101437.50
2023-09-30T01:24:41.856Z,101430.72
2023-09-30T01:27:09.408Z,101426.41
2023-09-30T01:29:39.418Z,101420.31
2023-09-30T01:32:10.217Z,101423.81
2023-09-30T01:34:37.274Z,101424.94
2023-09-30T01:37:04.003Z,101429.03
2023-09-30T01:39:31.255Z,101433.06
2023-09-30T01:41:58.078Z,101430.13
2023-09-30T01:44:24.593Z,101431.06
2023-09-30T01:46:51.129Z,101432.09
2023-09-30T01:49:19.197Z,101430.25
2023-09-30T01:51:46.934Z,101426.78
2023-09-30T01:54:13.593Z,101430.50
2023-09-30T01:56:40.401Z,101425.28
2023-09-30T01:59:06.908Z,101423.03
2023-09-30T02:01:33.485Z,101426.66
2023-09-30T02:04:00.126Z,101424.88
2023-09-30T02:06:26.981Z,101419.53
2023-09-30T02:08:53.440Z,101415.03
2023-09-30T02:11:19.907Z,101416.47
2023-09-30T02:13:46.440Z,101416.03
2023-09-30T02:16:14.607Z,101404.94
2023-09-30T02:18:46.113Z,101410.72
2023-09-30T02:21:12.892Z,101409.31
2023-09-30T02:23:39.395Z,101409.03
2023-09-30T02:26:05.906Z,101405.75
2023-09-30T02:28:33.448Z,101403.69
2023-09-30T02:31:01.718Z,101400.88
2023-09-30T02:33:28.542Z,101409.00
2023-09-30T02:35:55.359Z,101415.25
2023-09-30T02:38:22.084Z,101401.44
2023-09-30T02:40:49.739Z,101404.94
2023-09-30T02:43:17.691Z,101399.72
2023-09-30T02:45:45.005Z,101398.75
2023-09-30T02:48:11.709Z,101398.94
2023-09-30T02:50:38.519Z,101397.25
2023-09-30T02:53:05.320Z,101401.44
2023-09-30T02:55:34.247Z,101402.47
2023-09-30T02:58:02.008Z,101397.38
2023-09-30T03:00:33.142Z,101398.97
2023-09-30T03:03:02.671Z,101401.09
2023-09-30T03:05:31.451Z,101399.31
2023-09-30T03:07:57.876Z,101392.53
2023-09-30T03:10:27.921Z,101396.19
2023-09-30T03:12:55.037Z,101394.63
2023-09-30T03:15:21.793Z,101394.81
2023-09-30T03:17:52.818Z,101412.66
2023-09-30T03:20:21.681Z,101424.44
2023-09-30T03:22:48.846Z,101411.84
2023-09-30T03:25:18.906Z,101411.97
2023-09-30T03:27:49.422Z,101412.09
2023-09-30T03:30:17.038Z,101404.72
2023-09-30T03:32:44.206Z,101403.69
2023-09-30T03:35:16.018Z,101406.44
2023-09-30T03:37:42.514Z,101400.50
2023-09-30T03:40:28.546Z,101406.84
2023-09-30T03:42:55.762Z,101406.44
2023-09-30T03:45:22.352Z,101406.84
2023-09-30T03:47:50.232Z,101398.16
2023-09-30T03:50:17.444Z,101404.59
2023-09-30T03:52:45.707Z,101401.34
2023-09-30T03:55:16.846Z,101408.53
2023-09-30T03:57:45.133Z,101407.72
2023-09-30T04:00:17.137Z,101400.31
2023-09-30T04:02:44.237Z,101401.91
2023-09-30T04:05:13.807Z,101402.09
2023-09-30T04:07:40.241Z,101411.28
2023-09-30T04:10:06.901Z,101396.94
2023-09-30T04:12:33.848Z,101401.00
2023-09-30T04:15:01.395Z,101403.69
2023-09-30T04:17:28.513Z,101398.19
2023-09-30T04:19:55.063Z,101402.47
2023-09-30T04:22:22.534Z,101407.13
2023-09-30T04:24:53.883Z,101404.75
2023-09-30T04:27:20.896Z,101403.50
2023-09-30T04:29:47.508Z,101402.81
2023-09-30T04:32:14.867Z,101416.34
2023-09-30T04:34:42.875Z,101411.25
2023-09-30T04:37:10.562Z,101413.69
2023-09-30T04:39:37.067Z,101414.53
2023-09-30T04:42:05.177Z,101419.00
2023-09-30T04:44:32.717Z,101428.13
2023-09-30T04:46:59.278Z,101430.16
2023-09-30T04:49:25.733Z,101431.84
2023-09-30T04:51:52.175Z,101426.56
2023-09-30T04:54:18.657Z,101425.75
2023-09-30T04:56:45.126Z,101429.25
2023-09-30T04:59:11.561Z,101431.09
2023-09-30T05:01:38.039Z,101432.53
2023-09-30T05:04:04.998Z,101428.78
2023-09-30T05:06:33.707Z,101422.94
2023-09-30T05:09:01.058Z,101420.88
2023-09-30T05:11:27.529Z,101417.47
2023-09-30T05:13:53.979Z,101428.59
2023-09-30T05:16:20.616Z,101418.34
2023-09-30T05:18:49.287Z,101420.13
2023-09-30T05:21:16.776Z,101416.09
2023-09-30T05:23:43.436Z,101422.31
2023-09-30T05:26:09.900Z,101420.31
2023-09-30T05:28:36.338Z,101428.44
2023-09-30T05:31:03.700Z,101431.84
2023-09-30T05:33:30.362Z,101436.59
2023-09-30T05:35:56.960Z,101452.19
2023-09-30T05:38:24.299Z,101454.00
2023-09-30T05:40:50.805Z,101456.69
2023-09-30T05:43:17.808Z,101464.94
2023-09-30T05:45:51.202Z,101462.78
2023-09-30T05:48:18.085Z,101466.09
2023-09-30T05:50:45.008Z,101460.91
2023-09-30T05:53:15.028Z,101460.22
2023-09-30T05:55:44.089Z,101455.91
2023-09-30T05:58:11.074Z,101453.97
2023-09-30T06:00:37.574Z,101459.94
2023-09-30T06:03:07.390Z,101459.63
2023-09-30T06:05:35.039Z,101461.66
2023-09-30T06:08:04.550Z,101462.47
2023-09-30T06:10:31.492Z,101460.78
2023-09-30T06:12:58.550Z,101451.06
2023-09-30T06:15:29.864Z,101455.44
2023-09-30T06:17:57.885Z,101442.72
2023-09-30T06:20:27.644Z,101440.00
2023-09-30T06:22:55.042Z,101432.34
2023-09-30T06:25:22.881Z,101421.72
2023-09-30T06:27:49.870Z,101427.34
2023-09-30T06:30:17.426Z,101424.50
2023-09-30T06:32:44.970Z,101415.41
2023-09-30T06:35:12.144Z,101426.34
2023-09-30T06:37:40.178Z,101443.78
2023-09-30T06:40:12.666Z,101445.59
2023-09-30T06:42:40.807Z,101448.53
2023-09-30T06:45:08.737Z,101461.69
2023-09-30T06:47:35.698Z,101465.03
2023-09-30T06:50:09.098Z,101471.38
2023-09-30T06:52:36.638Z,101473.00
2023-09-30T06:55:05.646Z,101474.38
2023-09-30T06:57:36.967Z,101478.00
2023-09-30T07:00:10.079Z,101477.44
2023-09-30T07:02:37.600Z,101475.38
2023-09-30T07:05:15.643Z,101476.66
2023-09-30T07:07:44.721Z,101475.50
2023-09-30T07:10:12.409Z,101486.59
2023-09-30T07:12:38.990Z,101483.28
2023-09-30T07:15:06.928Z,101493.16
2023-09-30T07:17:35.120Z,101496.41
2023-09-30T07:20:03.184Z,101502.28
2023-09-30T07:22:39.951Z,101497.53
2023-09-30T07:25:15.699Z,101497.09
2023-09-30T07:27:42.241Z,101501.28
2023-09-30T07:30:09.221Z,101505.31
2023-09-30T07:32:35.681Z,101500.97
2023-09-30T07:35:02.620Z,101510.81
2023-09-30T07:37:29.675Z,101507.84
2023-09-30T07:39:56.219Z,101510.41
2023-09-30T07:42:23.527Z,101505.72
2023-09-30T07:44:50.200Z,101511.25
2023-09-30T07:47:16.684Z,101512.16
2023-09-30T07:49:43.151Z,101509.06
2023-09-30T07:52:10.144Z,101516.63
2023-09-30T07:54:36.712Z,101519.06
2023-09-30T07:57:03.263Z,101512.72
2023-09-30T07:59:29.733Z,101518.44
2023-09-30T08:01:57.051Z,101521.53
2023-09-30T08:04:23.669Z,101521.84
2023-09-30T08:06:52.093Z,101516.16
2023-09-30T08:09:19.720Z,101523.28
2023-09-30T08:11:46.445Z,101512.38
2023-09-30T08:14:12.935Z,101516.97
2023-09-30T08:16:39.877Z,101515.59
2023-09-30T08:19:06.507Z,101522.59
2023-09-30T08:21:33.164Z,101519.69
2023-09-30T08:24:00.323Z,101531.47
2023-09-30T08:26:26.917Z,101533.84
2023-09-30T08:28:53.358Z,101531.44
2023-09-30T08:31:20.678Z,101523.00
2023-09-30T08:33:47.292Z,101525.13
2023-09-30T08:36:13.985Z,101520.88
2023-09-30T08:38:41.910Z,101523.56
2023-09-30T08:41:08.540Z,101518.63
2023-09-30T08:43:41.654Z,101531.44
2023-09-30T08:46:08.572Z,101531.69
2023-09-30T08:48:36.649Z,101533.19
2023-09-30T08:51:03.636Z,101546.84
2023-09-30T08:53:31.208Z,101551.97
2023-09-30T08:55:59.991Z,101551.81
2023-09-30T08:58:33.489Z,101552.47
2023-09-30T09:01:00.251Z,101546.91
2023-09-30T09:03:30.506Z,101545.41
2023-09-30T09:05:57.651Z,101541.28
2023-09-30T09:08:26.926Z,101545.91
2023-09-30T09:10:58.285Z,101550.25
2023-09-30T09:13:28.346Z,101555.56
2023-09-30T09:16:08.951Z,101550.81
2023-09-30T09:18:37.181Z,101557.13
2023-09-30T09:21:11.643Z,101551.78
2023-09-30T09:23:46.217Z,101551.31
2023-09-30T09:26:36.180Z,101540.66
2023-09-30T09:29:07.401Z,101540.47
2023-09-30T09:31:36.382Z,101537.69
2023-09-30T09:34:05.369Z,101536.56
2023-09-30T09:36:41.791Z,101536.44
2023-09-30T09:39:08.783Z,101543.28
2023-09-30T09:41:51.513Z,101539.13
2023-09-30T09:44:20.409Z,101538.53
2023-09-30T09:46:50.136Z,101539.28
2023-09-30T09:49:21.550Z,101534.13
2023-09-30T09:51:49.866Z,101543.75
2023-09-30T09:54:17.979Z,101546.03
2023-09-30T09:56:47.334Z,101540.03
2023-09-30T09:59:15.000Z,101529.91
2023-09-30T10:01:42.538Z,101536.13
2023-09-30T10:04:12.040Z,101536.88
2023-09-30T10:06:41.776Z,101538.56
2023-09-30T10:09:14.211Z,101547.97
2023-09-30T10:11:41.576Z,101548.84
2023-09-30T10:14:14.192Z,101541.53
2023-09-30T10:16:41.311Z,101552.53
2023-09-30T10:19:08.484Z,101547.28
2023-09-30T10:21:35.169Z,101547.53
2023-09-30T10:24:26.829Z,101546.91
2023-09-30T10:27:33.385Z,101546.44
2023-09-30T10:30:03.152Z,101530.06
2023-09-30T10:32:58.203Z,101521.84
2023-09-30T10:35:27.389Z,101507.19
2023-09-30T10:38:22.454Z,101502.31
2023-09-30T10:40:52.680Z,101499.66
2023-09-30T10:43:39.121Z,101494.19
2023-09-30T10:46:28.276Z,101488.53
2023-09-30T10:48:55.121Z,101486.22
2023-09-30T10:51:22.653Z,101488.16
2023-09-30T10:53:52.556Z,101485.84
2023-09-30T10:56:23.044Z,101480.97
2023-09-30T10:58:51.197Z,101486.09
2023-09-30T11:01:20.127Z,101474.41
2023-09-30T11:03:48.041Z,101470.41
2023-09-30T11:06:18.699Z,101466.66
2023-09-30T11:08:55.131Z,101463.44
2023-09-30T11:11:36.516Z,101462.22
2023-09-30T11:14:03.758Z,101460.84
2023-09-30T11:16:30.302Z,101466.97
2023-09-30T11:18:57.155Z,101464.25
2023-09-30T11:21:24.289Z,101454.22
2023-09-30T11:23:51.231Z,101447.28
2023-09-30T11:26:30.335Z,101444.63
2023-09-30T11:28:57.561Z,101433.59
2023-09-30T11:31:24.199Z,101433.72
2023-09-30T11:33:54.934Z,101432.41
2023-09-30T11:36:22.865Z,101431.38
2023-09-30T11:38:51.451Z,101434.63
2023-09-30T11:41:23.123Z,101436.69
2023-09-30T11:44:14.710Z,101431.97
2023-09-30T11:47:02.015Z,101432.03
2023-09-30T11:49:37.274Z,101436.59
2023-09-30T11:52:05.866Z,101436.47
2023-09-30T11:54:34.654Z,101437.88
2023-09-30T11:57:02.897Z,101436.84
2023-09-30T11:59:30.221Z,101434.31
2023-09-30T12:02:12.868Z,101437.13
2023-09-30T12:04:41.904Z,101442.03
2023-09-30T12:07:09.341Z,101443.78
2023-09-30T12:09:38.286Z,101453.38
2023-09-30T12:12:05.480Z,101456.13
2023-09-30T12:14:32.329Z,101455.91
2023-09-30T12:16:58.890Z,101451.63
2023-09-30T12:19:27.426Z,101447.22
2023-09-30T12:21:54.297Z,101438.56
2023-09-30T12:24:23.006Z,101438.50
2023-09-30T12:26:50.848Z,101442.56
2023-09-30T12:29:18.764Z,101437.31
2023-09-30T12:31:53.197Z,101435.63
2023-09-30T12:34:20.729Z,101441.50
2023-09-30T12:36:48.703Z,101435.97
2023-09-30T12:39:17.758Z,101426.69
2023-09-30T12:41:46.675Z,101418.81
2023-09-30T12:44:14.470Z,101421.63
2023-09-30T12:46:42.160Z,101411.53
2023-09-30T12:49:08.882Z,101404.16
2023-09-30T12:51:36.310Z,101397.63
2023-09-30T12:54:03.195Z,101393.56
2023-09-30T12:56:33.973Z,101390.78
2023-09-30T12:59:00.707Z,101394.56
2023-09-30T13:01:29.765Z,101392.00
2023-09-30T13:03:57.001Z,101387.63
2023-09-30T13:06:23.762Z,101379.19
2023-09-30T13:08:50.348Z,101373.84
2023-09-30T13:11:16.908Z,101378.31
2023-09-30T13:13:44.645Z,101367.47
2023-09-30T13:16:12.919Z,101373.16
2023-09-30T13:18:40.167Z,101370.81
2023-09-30T13:21:07.191Z,101364.28
2023-09-30T13:23:34.425Z,101358.13
2023-09-30T13:26:01.502Z,101364.91
2023-09-30T13:28:31.449Z,101360.81
2023-09-30T13:30:58.258Z,101361.31
2023-09-30T13:33:24.888Z,101364.56
2023-09-30T13:35:51.517Z,101357.47
2023-09-30T13:38:18.133Z,101359.72
2023-09-30T13:40:45.355Z,101359.72
2023-09-30T13:43:12.180Z,101364.09
2023-09-30T13:45:39.234Z,101361.72
2023-09-30T13:48:06.269Z,101350.00
2023-09-30T13:50:32.991Z,101354.09
2023-09-30T13:53:02.114Z,101348.75
2023-09-30T13:55:28.672Z,101352.34
2023-09-30T13:57:55.322Z,101351.16
2023-09-30T14:00:22.398Z,101343.03
2023-09-30T14:02:49.597Z,101338.47
2023-09-30T14:05:16.400Z,101334.41
2023-09-30T14:07:44.336Z,101332.44
2023-09-30T14:10:14.350Z,101330.06
2023-09-30T14:12:41.514Z,101321.16
2023-09-30T14:15:09.151Z,101327.31
2023-09-30T14:17:38.801Z,101324.56
2023-09-30T14:20:07.223Z,101322.44
2023-09-30T14:22:34.550Z,101323.06
2023-09-30T14:25:01.465Z,101323.13
2023-09-30T14:27:28.325Z,101322.28
2023-09-30T14:29:55.085Z,101322.22
2023-09-30T14:32:21.781Z,101316.28
2023-09-30T14:34:48.585Z,101311.59
2023-09-30T14:37:15.535Z,101312.53
2023-09-30T14:39:42.311Z,101305.56
2023-09-30T14:42:08.994Z,101305.59
2023-09-30T14:44:35.454Z,101309.91
2023-09-30T14:47:01.966Z,101308.91
2023-09-30T14:49:28.676Z,101305.31
2023-09-30T14:51:57.505Z,101304.44
2023-09-30T14:54:24.781Z,101300.41
2023-09-30T14:56:51.288Z,101299.44
2023-09-30T14:59:17.810Z,101299.44
2023-09-30T15:01:44.495Z,101296.06
2023-09-30T15:04:11.299Z,101295.13
2023-09-30T15:06:38.192Z,101290.50
2023-09-30T15:09:05.537Z,101291.22
2023-09-30T15:11:32.792Z,101292.13
2023-09-30T15:13:59.523Z,101292.13
2023-09-30T15:16:26.925Z,101287.81
2023-09-30T15:18:53.930Z,101294.16
2023-09-30T15:21:21.012Z,101298.00
2023-09-30T15:23:47.770Z,101295.22
2023-09-30T15:26:14.372Z,101298.06
2023-09-30T15:28:40.820Z,101302.53
2023-09-30T15:31:08.117Z,101297.97
2023-09-30T15:33:35.171Z,101301.13
2023-09-30T15:36:10.598Z,101295.91
2023-09-30T15:38:37.181Z,101292.22
2023-09-30T15:41:04.717Z,101290.44
2023-09-30T15:43:33.833Z,101297.34
2023-09-30T15:46:01.262Z,101286.44
2023-09-30T15:48:28.085Z,101289.78
2023-09-30T15:50:54.603Z,101287.47
2023-09-30T15:53:21.107Z,101291.91
2023-09-30T15:55:47.595Z,101297.97
2023-09-30T15:58:14.049Z,101294.34
2023-09-30T16:00:41.321Z,101297.88
2023-09-30T16:03:09.523Z,101300.44
2023-09-30T16:05:38.473Z,101298.59
2023-09-30T16:08:06.479Z,101294.03
2023-09-30T16:10:33.344Z,101291.06
2023-09-30T16:13:00.624Z,101290.91
2023-09-30T16:15:27.428Z,101294.31
2023-09-30T16:17:54.058Z,101299.25
2023-09-30T16:20:25.876Z,101302.56
2023-09-30T16:22:52.658Z,101298.84
2023-09-30T16:25:19.602Z,101296.28
2023-09-30T16:27:46.124Z,101289.94
2023-09-30T16:30:15.857Z,101294.19
2023-09-30T16:32:43.876Z,101293.09
2023-09-30T16:35:11.273Z,101295.59
2023-09-30T16:37:39.002Z,101301.53
2023-09-30T16:40:07.791Z,101291.66
2023-09-30T16:42:34.912Z,101293.94
2023-09-30T16:45:02.576Z,101296.22
2023-09-30T16:47:29.857Z,101298.44
2023-09-30T16:49:56.574Z,101302.44
2023-09-30T16:52:24.503Z,101306.44
2023-09-30T16:54:51.614Z,101311.28
2023-09-30T16:57:18.631Z,101309.16
2023-09-30T16:59:46.520Z,101306.22
2023-09-30T17:02:13.317Z,101309.47
2023-09-30T17:04:44.108Z,101302.09
2023-09-30T17:07:10.758Z,101303.50
2023-09-30T17:09:37.877Z,101311.19
2023-09-30T17:12:04.786Z,101311.00
2023-09-30T17:14:34.272Z,101309.91
2023-09-30T17:17:01.084Z,101314.88
2023-09-30T17:19:28.129Z,101321.72
2023-09-30T17:21:55.985Z,101318.75
2023-09-30T17:24:22.748Z,101317.56
2023-09-30T17:26:49.245Z,101326.22
2023-09-30T17:29:15.681Z,101325.94
2023-09-30T17:31:42.314Z,101322.19
2023-09-30T17:34:08.892Z,101333.25
2023-09-30T17:36:35.526Z,101338.22
2023-09-30T17:39:02.489Z,101338.97
2023-09-30T17:41:29.112Z,101334.28
2023-09-30T17:43:55.669Z,101335.72
2023-09-30T17:46:22.289Z,101339.00
2023-09-30T17:48:49.443Z,101341.44
2023-09-30T17:51:22.850Z,101347.31
2023-09-30T17:53:53.373Z,101349.47
2023-09-30T17:56:22.366Z,101357.03
2023-09-30T17:58:49.171Z,101356.88
2023-09-30T18:01:20.123Z,101360.94
2023-09-30T18:03:47.581Z,101359.72
2023-09-30T18:06:15.014Z,101364.97
2023-09-30T18:08:42.259Z,101363.03
2023-09-30T18:11:09.533Z,101359.09
2023-09-30T18:13:36.770Z,101371.84
2023-09-30T18:16:03.861Z,101368.84
2023-09-30T18:18:31.055Z,101364.19
2023-09-30T18:20:58.055Z,101376.16
2023-09-30T18:23:24.561Z,101374.13
2023-09-30T18:25:51.210Z,101381.00
2023-09-30T18:28:17.776Z,101386.09
2023-09-30T18:30:45.677Z,101379.88
2023-09-30T18:33:15.607Z,101401.41
2023-09-30T18:35:43.610Z,101396.81
2023-09-30T18:38:15.064Z,101399.53
2023-09-30T18:40:44.103Z,101403.59
2023-09-30T18:43:17.356Z,101404.44
2023-09-30T18:45:45.814Z,101404.44
2023-09-30T18:48:13.813Z,101409.59
2023-09-30T18:50:49.770Z,101411.97
2023-09-30T18:53:16.962Z,101415.25
2023-09-30T18:55:45.885Z,101418.38
2023-09-30T18:58:12.544Z,101417.72
2023-09-30T19:00:41.403Z,101415.41
2023-09-30T19:03:08.865Z,101411.88
2023-09-30T19:05:36.402Z,101413.59
2023-09-30T19:08:04.100Z,101412.06
2023-09-30T19:10:30.783Z,101409.25
2023-09-30T19:12:57.681Z,101403.13
2023-09-30T19:15:27.266Z,101406.41
2023-09-30T19:17:54.185Z,101411.53
2023-09-30T19:20:20.830Z,101413.75
2023-09-30T19:22:48.138Z,101420.22
2023-09-30T19:25:14.803Z,101426.00
2023-09-30T19:27:41.916Z,101419.66
2023-09-30T19:30:09.831Z,101421.59
2023-09-30T19:32:36.937Z,101424.06
2023-09-30T19:35:04.986Z,101419.66
2023-09-30T19:37:31.879Z,101428.16
2023-09-30T19:39:58.799Z,101424.28
2023-09-30T19:42:27.547Z,101421.66
2023-09-30T19:44:54.542Z,101422.66
2023-09-30T19:47:21.613Z,101429.44
2023-09-30T19:49:48.888Z,101429.09
2023-09-30T19:52:15.534Z,101441.66
2023-09-30T19:54:42.375Z,101436.16
2023-09-30T19:57:08.824Z,101436.53
2023-09-30T19:59:38.685Z,101436.91
2023-09-30T20:02:06.309Z,101441.13
2023-09-30T20:04:32.858Z,101429.25
2023-09-30T20:07:00.017Z,101437.72
2023-09-30T20:09:27.279Z,101442.31
2023-09-30T20:12:03.557Z,101444.13
2023-09-30T20:14:33.464Z,101446.13
2023-09-30T20:17:00.129Z,101446.06
2023-09-30T20:19:27.736Z,101441.78
2023-09-30T20:21:54.872Z,101436.09
2023-09-30T20:24:22.437Z,101441.22
2023-09-30T20:26:49.076Z,101444.56
2023-09-30T20:29:15.635Z,101439.66
2023-09-30T20:31:42.210Z,101446.81
2023-09-30T20:34:09.379Z,101445.50
2023-09-30T20:36:36.118Z,101448.72
2023-09-30T20:39:03.587Z,101451.69
2023-09-30T20:41:30.601Z,101453.91
2023-09-30T20:43:57.482Z,101457.69
2023-09-30T20:46:26.020Z,101454.06
2023-09-30T20:48:53.515Z,101463.75
2023-09-30T20:51:20.435Z,101452.38
2023-09-30T20:53:49.948Z,101456.81
2023-09-30T20:56:16.919Z,101454.94
2023-09-30T20:58:43.460Z,101460.13
2023-09-30T21:01:13.837Z,101463.91
2023-09-30T21:03:41.378Z,101453.63
2023-09-30T21:06:09.276Z,101454.09
2023-09-30T21:08:37.781Z,101460.22
2023-09-30T21:11:08.219Z,101461.94
2023-09-30T21:13:35.373Z,101464.34
2023-09-30T21:16:05.737Z,101466.19
2023-09-30T21:18:33.732Z,101468.69
2023-09-30T21:21:01.150Z,101466.56
2023-09-30T21:23:27.977Z,101475.94
2023-09-30T21:25:55.633Z,101480.56
2023-09-30T21:28:23.315Z,101476.34
2023-09-30T21:30:50.408Z,101474.63
2023-09-30T21:33:16.878Z,101477.53
2023-09-30T21:35:43.348Z,101483.78
2023-09-30T21:38:10.305Z,101489.78
2023-09-30T21:40:36.829Z,101484.94
2023-09-30T21:43:04.646Z,101483.44
2023-09-30T21:45:31.454Z,101485.03
2023-09-30T21:47:58.040Z,101493.25
2023-09-30T21:50:24.819Z,101496.28
2023-09-30T21:52:51.646Z,101498.69
2023-09-30T21:55:18.415Z,101496.47
2023-09-30T21:57:44.984Z,101497.59
2023-09-30T22:00:17.028Z,101497.19
2023-09-30T22:02:44.362Z,101499.63
2023-09-30T22:05:11.463Z,101496.28
2023-09-30T22:07:40.461Z,101499.50
2023-09-30T22:10:08.591Z,101491.34
2023-09-30T22:12:35.912Z,101495.09
2023-09-30T22:15:02.475Z,101505.13
2023-09-30T22:17:28.983Z,101501.84
2023-09-30T22:19:55.468Z,101505.34
2023-09-30T22:22:21.978Z,101507.06
2023-09-30T22:24:49.156Z,101504.16
2023-09-30T22:27:15.722Z,101511.75
2023-09-30T22:29:42.723Z,101509.16
2023-09-30T22:32:09.203Z,101507.72
2023-09-30T22:34:36.336Z,101514.97
2023-09-30T22:37:02.854Z,101507.97
2023-09-30T22:39:29.326Z,101509.94
2023-09-30T22:41:55.831Z,101504.94
2023-09-30T22:44:22.254Z,101512.34
2023-09-30T22:46:49.492Z,101511.28
2023-09-30T22:49:16.739Z,101512.94
2023-09-30T22:51:43.327Z,101512.06
2023-09-30T22:54:09.838Z,101518.19
2023-09-30T22:56:36.518Z,101528.00
2023-09-30T22:59:04.854Z,101522.00
2023-09-30T23:01:31.403Z,101514.97
2023-09-30T23:03:59.545Z,101511.03
2023-09-30T23:06:26.365Z,101516.94
2023-09-30T23:08:53.221Z,101516.78
2023-09-30T23:11:19.697Z,101510.03
2023-09-30T23:13:46.893Z,101515.75
2023-09-30T23:16:13.804Z,101525.56
2023-09-30T23:18:40.614Z,101526.34
2023-09-30T23:21:10.619Z,101536.41
2023-09-30T23:23:37.358Z,101540.81
2023-09-30T23:26:07.773Z,101535.41
2023-09-30T23:28:38.809Z,101527.66
2023-09-30T23:31:06.016Z,101532.69
2023-09-30T23:33:34.264Z,101535.91
2023-09-30T23:36:06.754Z,101538.50
2023-09-30T23:38:36.074Z,101538.59
2023-09-30T23:41:04.873Z,101539.50
2023-09-30T23:43:32.842Z,101533.38
2023-09-30T23:45:59.573Z,101538.84
2023-09-30T23:48:26.921Z,101538.81
2023-09-30T23:50:54.819Z,101537.38
2023-09-30T23:53:23.546Z,101540.41
2023-09-30T23:55:50.603Z,101538.97
2023-09-30T23:58:17.232Z,101542.84
